sensor_id;sensor_type;location;lat;lon;timestamp;P1;durP1;ratioP1;P2;durP2;ratioP2
1479;SDS011;732;51.698;4.886;2022-10-17T00:01:48;12.80;;;8.30;;
1479;SDS011;732;51.698;4.886;2022-10-17T00:04:19;15.93;;;9.43;;
1479;SDS011;732;51.698;4.886;2022-10-17T00:06:48;14.10;;;8.97;;
1479;SDS011;732;51.698;4.886;2022-10-17T00:09:17;15.93;;;9.60;;
1479;SDS011;732;51.698;4.886;2022-10-17T00:11:46;17.63;;;9.57;;
1479;SDS011;732;51.698;4.886;2022-10-17T00:14:14;11.60;;;8.20;;
1479;SDS011;732;51.698;4.886;2022-10-17T00:16:43;13.20;;;8.87;;
1479;SDS011;732;51.698;4.886;2022-10-17T00:19:13;15.60;;;9.50;;
1479;SDS011;732;51.698;4.886;2022-10-17T00:21:41;14.80;;;9.03;;
1479;SDS011;732;51.698;4.886;2022-10-17T00:24:10;13.70;;;8.13;;
1479;SDS011;732;51.698;4.886;2022-10-17T00:26:38;13.23;;;8.23;;
1479;SDS011;732;51.698;4.886;2022-10-17T00:29:07;17.40;;;9.17;;
1479;SDS011;732;51.698;4.886;2022-10-17T00:31:36;13.47;;;8.07;;
1479;SDS011;732;51.698;4.886;2022-10-17T00:34:05;14.20;;;8.03;;
1479;SDS011;732;51.698;4.886;2022-10-17T00:36:35;14.30;;;9.27;;
1479;SDS011;732;51.698;4.886;2022-10-17T00:39:03;14.70;;;9.57;;
1479;SDS011;732;51.698;4.886;2022-10-17T00:41:32;12.60;;;8.37;;
1479;SDS011;732;51.698;4.886;2022-10-17T00:44:04;13.20;;;8.63;;
1479;SDS011;732;51.698;4.886;2022-10-17T00:46:54;13.57;;;8.97;;
1479;SDS011;732;51.698;4.886;2022-10-17T00:49:28;13.17;;;7.60;;
1479;SDS011;732;51.698;4.886;2022-10-17T00:52:03;13.40;;;8.37;;
1479;SDS011;732;51.698;4.886;2022-10-17T00:54:38;13.20;;;8.17;;
1479;SDS011;732;51.698;4.886;2022-10-17T00:57:11;12.60;;;8.70;;
1479;SDS011;732;51.698;4.886;2022-10-17T00:59:42;32.10;;;9.90;;
1479;SDS011;732;51.698;4.886;2022-10-17T01:02:16;11.80;;;7.97;;
1479;SDS011;732;51.698;4.886;2022-10-17T01:04:49;11.43;;;8.00;;
1479;SDS011;732;51.698;4.886;2022-10-17T01:07:21;11.37;;;7.53;;
1479;SDS011;732;51.698;4.886;2022-10-17T01:09:50;15.10;;;8.50;;
1479;SDS011;732;51.698;4.886;2022-10-17T01:12:21;12.93;;;7.90;;
1479;SDS011;732;51.698;4.886;2022-10-17T01:15:08;11.93;;;8.23;;
1479;SDS011;732;51.698;4.886;2022-10-17T01:17:47;12.07;;;7.80;;
1479;SDS011;732;51.698;4.886;2022-10-17T01:20:43;10.93;;;7.27;;
1479;SDS011;732;51.698;4.886;2022-10-17T01:24:15;13.53;;;7.70;;
1479;SDS011;732;51.698;4.886;2022-10-17T01:27:28;11.40;;;7.77;;
1479;SDS011;732;51.698;4.886;2022-10-17T01:33:52;12.83;;;8.07;;
1479;SDS011;732;51.698;4.886;2022-10-17T01:36:35;13.83;;;7.73;;
1479;SDS011;732;51.698;4.886;2022-10-17T01:39:10;11.13;;;7.53;;
1479;SDS011;732;51.698;4.886;2022-10-17T01:41:48;12.90;;;8.47;;
1479;SDS011;732;51.698;4.886;2022-10-17T01:44:26;12.77;;;8.10;;
1479;SDS011;732;51.698;4.886;2022-10-17T01:47:04;13.60;;;7.90;;
1479;SDS011;732;51.698;4.886;2022-10-17T01:49:40;11.57;;;7.97;;
1479;SDS011;732;51.698;4.886;2022-10-17T01:52:13;11.73;;;7.73;;
1479;SDS011;732;51.698;4.886;2022-10-17T01:54:47;12.57;;;8.67;;
1479;SDS011;732;51.698;4.886;2022-10-17T01:57:22;13.37;;;8.30;;
1479;SDS011;732;51.698;4.886;2022-10-17T01:59:58;14.20;;;8.97;;
1479;SDS011;732;51.698;4.886;2022-10-17T02:02:39;11.80;;;7.90;;
1479;SDS011;732;51.698;4.886;2022-10-17T02:05:10;19.13;;;9.90;;
1479;SDS011;732;51.698;4.886;2022-10-17T02:07:39;13.77;;;8.80;;
1479;SDS011;732;51.698;4.886;2022-10-17T02:10:09;15.17;;;8.87;;
1479;SDS011;732;51.698;4.886;2022-10-17T02:12:47;13.10;;;8.37;;
1479;SDS011;732;51.698;4.886;2022-10-17T02:15:27;15.40;;;9.50;;
1479;SDS011;732;51.698;4.886;2022-10-17T02:18:20;15.07;;;9.23;;
1479;SDS011;732;51.698;4.886;2022-10-17T02:21:14;13.83;;;8.73;;
1479;SDS011;732;51.698;4.886;2022-10-17T02:23:51;17.27;;;9.73;;
1479;SDS011;732;51.698;4.886;2022-10-17T02:26:25;13.53;;;8.53;;
1479;SDS011;732;51.698;4.886;2022-10-17T02:29:02;15.30;;;9.30;;
1479;SDS011;732;51.698;4.886;2022-10-17T02:31:37;15.73;;;8.37;;
1479;SDS011;732;51.698;4.886;2022-10-17T02:34:12;16.07;;;8.83;;
1479;SDS011;732;51.698;4.886;2022-10-17T02:36:49;17.33;;;8.40;;
1479;SDS011;732;51.698;4.886;2022-10-17T02:39:22;15.80;;;9.60;;
1479;SDS011;732;51.698;4.886;2022-10-17T02:41:55;15.47;;;9.47;;
1479;SDS011;732;51.698;4.886;2022-10-17T02:44:28;16.63;;;10.10;;
1479;SDS011;732;51.698;4.886;2022-10-17T02:47:02;17.97;;;10.00;;
1479;SDS011;732;51.698;4.886;2022-10-17T02:49:42;15.17;;;9.53;;
1479;SDS011;732;51.698;4.886;2022-10-17T02:52:20;16.60;;;10.10;;
1479;SDS011;732;51.698;4.886;2022-10-17T02:54:56;16.77;;;8.83;;
1479;SDS011;732;51.698;4.886;2022-10-17T02:57:30;13.77;;;8.60;;
1479;SDS011;732;51.698;4.886;2022-10-17T03:00:04;14.73;;;9.30;;
1479;SDS011;732;51.698;4.886;2022-10-17T03:02:38;17.23;;;8.57;;
1479;SDS011;732;51.698;4.886;2022-10-17T03:05:12;12.90;;;8.07;;
1479;SDS011;732;51.698;4.886;2022-10-17T03:07:47;14.20;;;9.20;;
1479;SDS011;732;51.698;4.886;2022-10-17T03:10:15;15.77;;;8.73;;
1479;SDS011;732;51.698;4.886;2022-10-17T03:12:47;12.23;;;8.50;;
1479;SDS011;732;51.698;4.886;2022-10-17T03:15:17;15.13;;;9.53;;
1479;SDS011;732;51.698;4.886;2022-10-17T03:17:48;14.97;;;9.40;;
1479;SDS011;732;51.698;4.886;2022-10-17T03:20:19;13.97;;;7.93;;
1479;SDS011;732;51.698;4.886;2022-10-17T03:22:50;16.83;;;9.03;;
1479;SDS011;732;51.698;4.886;2022-10-17T03:25:20;14.50;;;9.03;;
1479;SDS011;732;51.698;4.886;2022-10-17T03:27:52;16.67;;;9.10;;
1479;SDS011;732;51.698;4.886;2022-10-17T03:30:21;12.80;;;8.40;;
1479;SDS011;732;51.698;4.886;2022-10-17T03:32:52;13.10;;;8.37;;
1479;SDS011;732;51.698;4.886;2022-10-17T03:35:22;14.67;;;8.53;;
1479;SDS011;732;51.698;4.886;2022-10-17T03:37:51;13.27;;;8.40;;
1479;SDS011;732;51.698;4.886;2022-10-17T03:40:25;14.93;;;8.20;;
1479;SDS011;732;51.698;4.886;2022-10-17T03:42:53;13.07;;;8.20;;
1479;SDS011;732;51.698;4.886;2022-10-17T03:45:22;14.07;;;9.00;;
1479;SDS011;732;51.698;4.886;2022-10-17T03:47:52;15.07;;;7.80;;
1479;SDS011;732;51.698;4.886;2022-10-17T03:50:22;13.63;;;7.80;;
1479;SDS011;732;51.698;4.886;2022-10-17T03:52:51;18.00;;;9.00;;
1479;SDS011;732;51.698;4.886;2022-10-17T03:55:19;15.47;;;9.30;;
1479;SDS011;732;51.698;4.886;2022-10-17T03:57:48;12.80;;;8.57;;
1479;SDS011;732;51.698;4.886;2022-10-17T04:00:19;12.87;;;8.20;;
1479;SDS011;732;51.698;4.886;2022-10-17T04:02:53;12.70;;;8.17;;
1479;SDS011;732;51.698;4.886;2022-10-17T04:05:24;14.10;;;8.53;;
1479;SDS011;732;51.698;4.886;2022-10-17T04:07:55;13.57;;;8.57;;
1479;SDS011;732;51.698;4.886;2022-10-17T04:10:49;13.93;;;8.37;;
1479;SDS011;732;51.698;4.886;2022-10-17T04:13:17;14.07;;;8.50;;
1479;SDS011;732;51.698;4.886;2022-10-17T04:15:52;14.97;;;8.93;;
1479;SDS011;732;51.698;4.886;2022-10-17T04:18:22;12.90;;;7.37;;
1479;SDS011;732;51.698;4.886;2022-10-17T04:20:52;18.47;;;8.03;;
1479;SDS011;732;51.698;4.886;2022-10-17T04:23:21;12.40;;;8.10;;
1479;SDS011;732;51.698;4.886;2022-10-17T04:25:57;15.13;;;8.00;;
1479;SDS011;732;51.698;4.886;2022-10-17T04:28:27;13.80;;;7.80;;
1479;SDS011;732;51.698;4.886;2022-10-17T04:30:57;13.70;;;7.90;;
1479;SDS011;732;51.698;4.886;2022-10-17T04:33:34;12.70;;;7.70;;
1479;SDS011;732;51.698;4.886;2022-10-17T04:36:05;12.90;;;8.53;;
1479;SDS011;732;51.698;4.886;2022-10-17T04:38:37;12.10;;;7.83;;
1479;SDS011;732;51.698;4.886;2022-10-17T04:41:10;13.70;;;8.90;;
1479;SDS011;732;51.698;4.886;2022-10-17T04:43:41;14.00;;;8.20;;
1479;SDS011;732;51.698;4.886;2022-10-17T04:46:17;13.67;;;8.70;;
1479;SDS011;732;51.698;4.886;2022-10-17T04:48:46;12.73;;;8.37;;
1479;SDS011;732;51.698;4.886;2022-10-17T04:51:17;12.23;;;7.27;;
1479;SDS011;732;51.698;4.886;2022-10-17T04:54:26;11.60;;;7.80;;
1479;SDS011;732;51.698;4.886;2022-10-17T04:57:05;15.37;;;7.87;;
1479;SDS011;732;51.698;4.886;2022-10-17T04:59:35;13.30;;;8.20;;
1479;SDS011;732;51.698;4.886;2022-10-17T05:02:14;10.93;;;7.50;;
1479;SDS011;732;51.698;4.886;2022-10-17T05:04:44;11.57;;;7.80;;
1479;SDS011;732;51.698;4.886;2022-10-17T05:07:15;11.40;;;7.80;;
1479;SDS011;732;51.698;4.886;2022-10-17T05:09:43;11.57;;;8.10;;
1479;SDS011;732;51.698;4.886;2022-10-17T05:12:12;13.37;;;8.13;;
1479;SDS011;732;51.698;4.886;2022-10-17T05:14:43;11.83;;;7.60;;
1479;SDS011;732;51.698;4.886;2022-10-17T05:17:12;12.63;;;7.70;;
1479;SDS011;732;51.698;4.886;2022-10-17T05:19:41;11.37;;;7.77;;
1479;SDS011;732;51.698;4.886;2022-10-17T05:22:10;11.27;;;7.50;;
1479;SDS011;732;51.698;4.886;2022-10-17T05:24:42;11.60;;;7.10;;
1479;SDS011;732;51.698;4.886;2022-10-17T05:27:13;13.37;;;7.50;;
1479;SDS011;732;51.698;4.886;2022-10-17T05:29:41;11.00;;;6.80;;
1479;SDS011;732;51.698;4.886;2022-10-17T05:32:19;11.47;;;7.83;;
1479;SDS011;732;51.698;4.886;2022-10-17T05:34:48;12.13;;;7.03;;
1479;SDS011;732;51.698;4.886;2022-10-17T05:37:18;11.67;;;7.30;;
1479;SDS011;732;51.698;4.886;2022-10-17T05:39:51;12.40;;;7.43;;
1479;SDS011;732;51.698;4.886;2022-10-17T05:42:19;10.13;;;6.77;;
1479;SDS011;732;51.698;4.886;2022-10-17T05:44:48;11.80;;;7.23;;
1479;SDS011;732;51.698;4.886;2022-10-17T05:47:18;10.87;;;7.07;;
1479;SDS011;732;51.698;4.886;2022-10-17T05:49:47;11.03;;;7.13;;
1479;SDS011;732;51.698;4.886;2022-10-17T05:52:24;10.00;;;6.70;;
1479;SDS011;732;51.698;4.886;2022-10-17T05:55:04;11.97;;;7.80;;
1479;SDS011;732;51.698;4.886;2022-10-17T05:57:34;10.80;;;6.90;;
1479;SDS011;732;51.698;4.886;2022-10-17T06:00:07;12.63;;;7.60;;
1479;SDS011;732;51.698;4.886;2022-10-17T06:02:40;15.50;;;7.70;;
1479;SDS011;732;51.698;4.886;2022-10-17T06:05:13;12.47;;;7.90;;
1479;SDS011;732;51.698;4.886;2022-10-17T06:07:43;13.60;;;7.30;;
1479;SDS011;732;51.698;4.886;2022-10-17T06:10:20;13.07;;;7.37;;
1479;SDS011;732;51.698;4.886;2022-10-17T06:12:49;14.83;;;7.87;;
1479;SDS011;732;51.698;4.886;2022-10-17T06:15:19;14.77;;;8.20;;
1479;SDS011;732;51.698;4.886;2022-10-17T06:17:57;10.20;;;7.63;;
1479;SDS011;732;51.698;4.886;2022-10-17T06:20:25;9.93;;;7.23;;
1479;SDS011;732;51.698;4.886;2022-10-17T06:22:54;15.30;;;8.37;;
1479;SDS011;732;51.698;4.886;2022-10-17T06:25:38;12.17;;;8.40;;
1479;SDS011;732;51.698;4.886;2022-10-17T06:28:07;12.10;;;8.17;;
1479;SDS011;732;51.698;4.886;2022-10-17T06:30:36;11.23;;;8.33;;
1479;SDS011;732;51.698;4.886;2022-10-17T06:33:05;17.53;;;9.27;;
1479;SDS011;732;51.698;4.886;2022-10-17T06:35:34;14.43;;;9.60;;
1479;SDS011;732;51.698;4.886;2022-10-17T06:38:03;15.17;;;9.10;;
1479;SDS011;732;51.698;4.886;2022-10-17T06:40:34;12.90;;;8.53;;
1479;SDS011;732;51.698;4.886;2022-10-17T06:43:04;13.07;;;8.47;;
1479;SDS011;732;51.698;4.886;2022-10-17T06:45:47;14.80;;;9.20;;
1479;SDS011;732;51.698;4.886;2022-10-17T06:48:50;12.97;;;8.97;;
1479;SDS011;732;51.698;4.886;2022-10-17T06:51:38;12.40;;;8.30;;
1479;SDS011;732;51.698;4.886;2022-10-17T06:54:09;16.70;;;8.73;;
1479;SDS011;732;51.698;4.886;2022-10-17T06:56:47;12.00;;;7.63;;
1479;SDS011;732;51.698;4.886;2022-10-17T06:59:29;12.50;;;8.00;;
1479;SDS011;732;51.698;4.886;2022-10-17T07:02:18;12.70;;;7.70;;
1479;SDS011;732;51.698;4.886;2022-10-17T07:04:50;12.00;;;8.00;;
1479;SDS011;732;51.698;4.886;2022-10-17T07:07:23;12.63;;;8.87;;
1479;SDS011;732;51.698;4.886;2022-10-17T07:09:51;14.40;;;8.23;;
1479;SDS011;732;51.698;4.886;2022-10-17T07:12:23;15.33;;;8.07;;
1479;SDS011;732;51.698;4.886;2022-10-17T07:14:55;13.33;;;8.03;;
1479;SDS011;732;51.698;4.886;2022-10-17T07:17:23;15.33;;;8.43;;
1479;SDS011;732;51.698;4.886;2022-10-17T07:19:52;11.27;;;8.20;;
1479;SDS011;732;51.698;4.886;2022-10-17T07:22:22;14.10;;;8.57;;
1479;SDS011;732;51.698;4.886;2022-10-17T07:24:57;11.63;;;8.23;;
1479;SDS011;732;51.698;4.886;2022-10-17T07:27:35;12.00;;;7.27;;
1479;SDS011;732;51.698;4.886;2022-10-17T07:30:06;11.53;;;7.00;;
1479;SDS011;732;51.698;4.886;2022-10-17T07:32:39;12.97;;;7.90;;
1479;SDS011;732;51.698;4.886;2022-10-17T07:35:08;9.97;;;6.97;;
1479;SDS011;732;51.698;4.886;2022-10-17T07:37:39;11.73;;;7.67;;
1479;SDS011;732;51.698;4.886;2022-10-17T07:40:08;11.03;;;6.73;;
1479;SDS011;732;51.698;4.886;2022-10-17T07:42:38;13.63;;;7.27;;
1479;SDS011;732;51.698;4.886;2022-10-17T07:45:09;15.60;;;7.10;;
1479;SDS011;732;51.698;4.886;2022-10-17T07:47:38;10.53;;;6.67;;
1479;SDS011;732;51.698;4.886;2022-10-17T07:50:08;12.87;;;7.27;;
1479;SDS011;732;51.698;4.886;2022-10-17T07:52:37;10.13;;;6.50;;
1479;SDS011;732;51.698;4.886;2022-10-17T07:55:06;11.80;;;7.23;;
1479;SDS011;732;51.698;4.886;2022-10-17T07:57:36;11.03;;;6.90;;
1479;SDS011;732;51.698;4.886;2022-10-17T08:00:09;12.77;;;8.00;;
1479;SDS011;732;51.698;4.886;2022-10-17T08:02:39;10.90;;;7.40;;
1479;SDS011;732;51.698;4.886;2022-10-17T08:05:09;10.40;;;7.40;;
1479;SDS011;732;51.698;4.886;2022-10-17T08:07:37;11.60;;;7.87;;
1479;SDS011;732;51.698;4.886;2022-10-17T08:10:07;13.13;;;7.60;;
1479;SDS011;732;51.698;4.886;2022-10-17T08:12:38;11.67;;;7.10;;
1479;SDS011;732;51.698;4.886;2022-10-17T08:15:07;9.63;;;6.80;;
1479;SDS011;732;51.698;4.886;2022-10-17T08:17:38;11.40;;;7.10;;
1479;SDS011;732;51.698;4.886;2022-10-17T08:20:07;11.10;;;7.20;;
1479;SDS011;732;51.698;4.886;2022-10-17T08:22:37;11.33;;;7.17;;
1479;SDS011;732;51.698;4.886;2022-10-17T08:25:07;13.83;;;7.87;;
1479;SDS011;732;51.698;4.886;2022-10-17T08:27:37;11.60;;;7.30;;
1479;SDS011;732;51.698;4.886;2022-10-17T08:30:06;12.23;;;7.23;;
1479;SDS011;732;51.698;4.886;2022-10-17T08:32:37;12.80;;;7.47;;
1479;SDS011;732;51.698;4.886;2022-10-17T08:35:08;19.63;;;7.50;;
1479;SDS011;732;51.698;4.886;2022-10-17T08:37:37;14.40;;;8.00;;
1479;SDS011;732;51.698;4.886;2022-10-17T08:40:06;15.23;;;8.60;;
1479;SDS011;732;51.698;4.886;2022-10-17T08:42:49;13.27;;;8.57;;
1479;SDS011;732;51.698;4.886;2022-10-17T08:45:46;13.67;;;8.03;;
1479;SDS011;732;51.698;4.886;2022-10-17T08:48:22;11.13;;;7.73;;
1479;SDS011;732;51.698;4.886;2022-10-17T08:50:55;13.50;;;8.40;;
1479;SDS011;732;51.698;4.886;2022-10-17T08:53:28;10.73;;;7.80;;
1479;SDS011;732;51.698;4.886;2022-10-17T08:56:03;13.67;;;8.00;;
1479;SDS011;732;51.698;4.886;2022-10-17T08:58:50;16.57;;;7.57;;
1479;SDS011;732;51.698;4.886;2022-10-17T09:01:27;13.50;;;8.20;;
1479;SDS011;732;51.698;4.886;2022-10-17T09:04:08;10.97;;;7.47;;
1479;SDS011;732;51.698;4.886;2022-10-17T09:07:03;18.60;;;8.97;;
1479;SDS011;732;51.698;4.886;2022-10-17T09:09:41;14.17;;;8.20;;
1479;SDS011;732;51.698;4.886;2022-10-17T09:12:22;13.03;;;8.10;;
1479;SDS011;732;51.698;4.886;2022-10-17T09:15:15;14.10;;;8.87;;
1479;SDS011;732;51.698;4.886;2022-10-17T09:39:52;13.43;;;8.43;;
1479;SDS011;732;51.698;4.886;2022-10-17T09:50:59;12.20;;;8.77;;
1479;SDS011;732;51.698;4.886;2022-10-17T10:28:00;10.90;;;6.57;;
1479;SDS011;732;51.698;4.886;2022-10-17T10:34:45;11.20;;;6.10;;
1479;SDS011;732;51.698;4.886;2022-10-17T10:37:18;8.93;;;5.77;;
1479;SDS011;732;51.698;4.886;2022-10-17T10:39:52;7.70;;;5.87;;
1479;SDS011;732;51.698;4.886;2022-10-17T10:42:24;9.77;;;6.40;;
1479;SDS011;732;51.698;4.886;2022-10-17T10:45:00;11.20;;;7.23;;
1479;SDS011;732;51.698;4.886;2022-10-17T10:48:01;8.60;;;5.73;;
1479;SDS011;732;51.698;4.886;2022-10-17T10:50:35;10.83;;;7.03;;
1479;SDS011;732;51.698;4.886;2022-10-17T10:53:13;10.20;;;7.50;;
1479;SDS011;732;51.698;4.886;2022-10-17T10:56:02;11.27;;;7.17;;
1479;SDS011;732;51.698;4.886;2022-10-17T10:58:40;11.10;;;7.13;;
1479;SDS011;732;51.698;4.886;2022-10-17T11:01:20;9.17;;;6.97;;
1479;SDS011;732;51.698;4.886;2022-10-17T11:04:07;11.90;;;6.77;;
1479;SDS011;732;51.698;4.886;2022-10-17T11:06:57;10.43;;;6.80;;
1479;SDS011;732;51.698;4.886;2022-10-17T11:09:39;10.33;;;6.47;;
1479;SDS011;732;51.698;4.886;2022-10-17T11:12:21;7.70;;;5.80;;
1479;SDS011;732;51.698;4.886;2022-10-17T11:14:59;8.30;;;6.10;;
1479;SDS011;732;51.698;4.886;2022-10-17T11:17:37;9.03;;;6.53;;
1479;SDS011;732;51.698;4.886;2022-10-17T11:20:16;11.80;;;6.90;;
1479;SDS011;732;51.698;4.886;2022-10-17T11:22:53;8.67;;;6.40;;
1479;SDS011;732;51.698;4.886;2022-10-17T11:25:33;11.60;;;7.20;;
1479;SDS011;732;51.698;4.886;2022-10-17T11:28:11;9.93;;;7.30;;
1479;SDS011;732;51.698;4.886;2022-10-17T11:30:55;10.43;;;7.20;;
1479;SDS011;732;51.698;4.886;2022-10-17T11:33:36;12.13;;;7.87;;
1479;SDS011;732;51.698;4.886;2022-10-17T11:36:17;11.10;;;7.50;;
1479;SDS011;732;51.698;4.886;2022-10-17T11:39:04;13.00;;;8.17;;
1479;SDS011;732;51.698;4.886;2022-10-17T11:41:38;12.03;;;7.90;;
1479;SDS011;732;51.698;4.886;2022-10-17T11:44:19;11.97;;;8.40;;
1479;SDS011;732;51.698;4.886;2022-10-17T11:46:54;12.03;;;8.00;;
1479;SDS011;732;51.698;4.886;2022-10-17T11:49:35;14.10;;;8.70;;
1479;SDS011;732;51.698;4.886;2022-10-17T11:52:12;14.00;;;8.97;;
1479;SDS011;732;51.698;4.886;2022-10-17T11:55:16;10.13;;;7.37;;
1479;SDS011;732;51.698;4.886;2022-10-17T11:57:55;8.70;;;7.20;;
1479;SDS011;732;51.698;4.886;2022-10-17T12:00:42;11.87;;;8.97;;
1479;SDS011;732;51.698;4.886;2022-10-17T12:03:28;12.37;;;8.20;;
1479;SDS011;732;51.698;4.886;2022-10-17T12:06:12;13.50;;;8.20;;
1479;SDS011;732;51.698;4.886;2022-10-17T12:09:00;9.67;;;7.30;;
1479;SDS011;732;51.698;4.886;2022-10-17T12:11:40;13.13;;;7.90;;
1479;SDS011;732;51.698;4.886;2022-10-17T12:14:39;14.60;;;8.17;;
1479;SDS011;732;51.698;4.886;2022-10-17T12:17:21;13.90;;;7.30;;
1479;SDS011;732;51.698;4.886;2022-10-17T12:20:27;11.47;;;8.70;;
1479;SDS011;732;51.698;4.886;2022-10-17T12:25:56;10.90;;;8.20;;
1479;SDS011;732;51.698;4.886;2022-10-17T12:28:31;12.17;;;8.53;;
1479;SDS011;732;51.698;4.886;2022-10-17T12:31:08;11.80;;;7.90;;
1479;SDS011;732;51.698;4.886;2022-10-17T12:33:59;10.73;;;8.77;;
1479;SDS011;732;51.698;4.886;2022-10-17T12:51:27;17.30;;;10.93;;
1479;SDS011;732;51.698;4.886;2022-10-17T12:54:16;15.53;;;11.20;;
1479;SDS011;732;51.698;4.886;2022-10-17T12:56:47;15.20;;;10.20;;
1479;SDS011;732;51.698;4.886;2022-10-17T12:59:19;13.83;;;9.57;;
1479;SDS011;732;51.698;4.886;2022-10-17T13:01:52;12.00;;;9.13;;
1479;SDS011;732;51.698;4.886;2022-10-17T13:04:24;12.70;;;9.50;;
1479;SDS011;732;51.698;4.886;2022-10-17T13:06:54;14.53;;;10.50;;
1479;SDS011;732;51.698;4.886;2022-10-17T13:09:27;11.13;;;8.73;;
1479;SDS011;732;51.698;4.886;2022-10-17T13:12:02;12.77;;;10.00;;
1479;SDS011;732;51.698;4.886;2022-10-17T13:14:32;12.60;;;9.40;;
1479;SDS011;732;51.698;4.886;2022-10-17T13:17:06;12.90;;;9.20;;
1479;SDS011;732;51.698;4.886;2022-10-17T13:19:49;12.37;;;9.40;;
1479;SDS011;732;51.698;4.886;2022-10-17T13:22:19;12.17;;;8.80;;
1479;SDS011;732;51.698;4.886;2022-10-17T13:24:50;12.20;;;9.17;;
1479;SDS011;732;51.698;4.886;2022-10-17T13:27:23;11.50;;;8.20;;
1479;SDS011;732;51.698;4.886;2022-10-17T13:29:54;11.80;;;8.40;;
1479;SDS011;732;51.698;4.886;2022-10-17T13:32:26;9.87;;;7.80;;
1479;SDS011;732;51.698;4.886;2022-10-17T13:35:07;12.20;;;8.17;;
1479;SDS011;732;51.698;4.886;2022-10-17T13:37:38;10.83;;;7.53;;
1479;SDS011;732;51.698;4.886;2022-10-17T13:40:14;9.87;;;7.03;;
1479;SDS011;732;51.698;4.886;2022-10-17T13:43:08;9.97;;;6.47;;
1479;SDS011;732;51.698;4.886;2022-10-17T13:45:44;11.17;;;6.53;;
1479;SDS011;732;51.698;4.886;2022-10-17T13:48:17;7.20;;;5.40;;
1479;SDS011;732;51.698;4.886;2022-10-17T13:50:50;9.63;;;6.00;;
1479;SDS011;732;51.698;4.886;2022-10-17T13:53:25;7.20;;;5.07;;
1479;SDS011;732;51.698;4.886;2022-10-17T13:55:59;9.27;;;4.97;;
1479;SDS011;732;51.698;4.886;2022-10-17T13:58:52;6.53;;;5.50;;
1479;SDS011;732;51.698;4.886;2022-10-17T14:01:24;9.53;;;5.00;;
1479;SDS011;732;51.698;4.886;2022-10-17T14:03:55;8.00;;;5.53;;
1479;SDS011;732;51.698;4.886;2022-10-17T14:06:41;6.30;;;5.20;;
1479;SDS011;732;51.698;4.886;2022-10-17T14:09:17;9.73;;;5.33;;
1479;SDS011;732;51.698;4.886;2022-10-17T14:11:58;7.47;;;5.80;;
1479;SDS011;732;51.698;4.886;2022-10-17T14:14:30;8.90;;;6.13;;
1479;SDS011;732;51.698;4.886;2022-10-17T14:17:21;12.47;;;7.97;;
1479;SDS011;732;51.698;4.886;2022-10-17T14:19:57;9.60;;;6.70;;
1479;SDS011;732;51.698;4.886;2022-10-17T14:22:49;10.40;;;6.73;;
1479;SDS011;732;51.698;4.886;2022-10-17T14:25:39;10.00;;;6.60;;
1479;SDS011;732;51.698;4.886;2022-10-17T14:28:12;9.37;;;7.07;;
1479;SDS011;732;51.698;4.886;2022-10-17T14:30:45;9.13;;;6.40;;
1479;SDS011;732;51.698;4.886;2022-10-17T14:33:23;8.77;;;7.37;;
1479;SDS011;732;51.698;4.886;2022-10-17T14:35:56;11.40;;;7.23;;
1479;SDS011;732;51.698;4.886;2022-10-17T14:38:26;9.23;;;7.20;;
1479;SDS011;732;51.698;4.886;2022-10-17T14:40:57;11.57;;;6.70;;
1479;SDS011;732;51.698;4.886;2022-10-17T14:43:54;8.50;;;6.70;;
1479;SDS011;732;51.698;4.886;2022-10-17T14:46:27;10.23;;;7.33;;
1479;SDS011;732;51.698;4.886;2022-10-17T14:48:58;9.40;;;7.50;;
1479;SDS011;732;51.698;4.886;2022-10-17T14:51:32;10.37;;;7.30;;
1479;SDS011;732;51.698;4.886;2022-10-17T14:54:23;12.60;;;6.83;;
1479;SDS011;732;51.698;4.886;2022-10-17T14:56:55;10.10;;;6.80;;
1479;SDS011;732;51.698;4.886;2022-10-17T14:59:23;7.93;;;6.27;;
1479;SDS011;732;51.698;4.886;2022-10-17T15:02:13;10.20;;;6.70;;
1479;SDS011;732;51.698;4.886;2022-10-17T15:04:42;8.90;;;7.00;;
1479;SDS011;732;51.698;4.886;2022-10-17T15:07:12;8.40;;;6.47;;
1479;SDS011;732;51.698;4.886;2022-10-17T15:09:42;12.20;;;6.87;;
1479;SDS011;732;51.698;4.886;2022-10-17T15:12:13;9.67;;;7.50;;
1479;SDS011;732;51.698;4.886;2022-10-17T15:14:43;10.77;;;7.00;;
1479;SDS011;732;51.698;4.886;2022-10-17T15:17:16;10.00;;;6.87;;
1479;SDS011;732;51.698;4.886;2022-10-17T15:19:46;8.70;;;7.23;;
1479;SDS011;732;51.698;4.886;2022-10-17T15:22:16;11.80;;;7.53;;
1479;SDS011;732;51.698;4.886;2022-10-17T15:24:45;12.00;;;7.70;;
1479;SDS011;732;51.698;4.886;2022-10-17T15:27:14;10.17;;;7.37;;
1479;SDS011;732;51.698;4.886;2022-10-17T15:29:47;9.30;;;7.10;;
1479;SDS011;732;51.698;4.886;2022-10-17T15:32:17;9.20;;;6.23;;
1479;SDS011;732;51.698;4.886;2022-10-17T15:34:46;8.63;;;5.53;;
1479;SDS011;732;51.698;4.886;2022-10-17T15:37:15;8.87;;;5.73;;
1479;SDS011;732;51.698;4.886;2022-10-17T15:39:48;7.63;;;5.87;;
1479;SDS011;732;51.698;4.886;2022-10-17T15:42:20;12.00;;;5.63;;
1479;SDS011;732;51.698;4.886;2022-10-17T15:44:52;9.93;;;6.10;;
1479;SDS011;732;51.698;4.886;2022-10-17T15:47:24;8.37;;;6.13;;
1479;SDS011;732;51.698;4.886;2022-10-17T15:49:57;8.77;;;6.17;;
1479;SDS011;732;51.698;4.886;2022-10-17T15:52:29;9.07;;;6.70;;
1479;SDS011;732;51.698;4.886;2022-10-17T15:54:58;11.87;;;7.60;;
1479;SDS011;732;51.698;4.886;2022-10-17T15:57:32;9.20;;;7.17;;
1479;SDS011;732;51.698;4.886;2022-10-17T16:00:06;10.07;;;7.33;;
1479;SDS011;732;51.698;4.886;2022-10-17T16:02:43;10.40;;;7.20;;
1479;SDS011;732;51.698;4.886;2022-10-17T16:05:13;11.80;;;7.40;;
1479;SDS011;732;51.698;4.886;2022-10-17T16:07:44;9.53;;;7.47;;
1479;SDS011;732;51.698;4.886;2022-10-17T16:10:14;12.23;;;7.87;;
1479;SDS011;732;51.698;4.886;2022-10-17T16:12:43;9.90;;;7.40;;
1479;SDS011;732;51.698;4.886;2022-10-17T16:15:17;11.97;;;8.77;;
1479;SDS011;732;51.698;4.886;2022-10-17T16:17:50;14.13;;;8.93;;
1479;SDS011;732;51.698;4.886;2022-10-17T16:20:21;13.30;;;8.47;;
1479;SDS011;732;51.698;4.886;2022-10-17T16:22:52;12.80;;;8.10;;
1479;SDS011;732;51.698;4.886;2022-10-17T16:25:26;12.00;;;8.57;;
1479;SDS011;732;51.698;4.886;2022-10-17T16:27:57;11.13;;;7.73;;
1479;SDS011;732;51.698;4.886;2022-10-17T16:30:27;10.63;;;8.00;;
1479;SDS011;732;51.698;4.886;2022-10-17T16:32:58;15.53;;;11.70;;
1479;SDS011;732;51.698;4.886;2022-10-17T16:35:28;18.60;;;9.53;;
1479;SDS011;732;51.698;4.886;2022-10-17T16:38:03;18.50;;;10.53;;
1479;SDS011;732;51.698;4.886;2022-10-17T16:40:32;14.40;;;11.50;;
1479;SDS011;732;51.698;4.886;2022-10-17T16:43:01;15.50;;;11.13;;
1479;SDS011;732;51.698;4.886;2022-10-17T16:45:30;18.00;;;9.70;;
1479;SDS011;732;51.698;4.886;2022-10-17T16:48:00;12.83;;;8.57;;
1479;SDS011;732;51.698;4.886;2022-10-17T16:50:28;12.03;;;8.83;;
1479;SDS011;732;51.698;4.886;2022-10-17T16:53:01;12.87;;;8.50;;
1479;SDS011;732;51.698;4.886;2022-10-17T16:55:29;12.77;;;8.87;;
1479;SDS011;732;51.698;4.886;2022-10-17T16:57:58;16.03;;;9.00;;
1479;SDS011;732;51.698;4.886;2022-10-17T17:00:27;13.00;;;8.60;;
1479;SDS011;732;51.698;4.886;2022-10-17T17:02:59;15.63;;;9.93;;
1479;SDS011;732;51.698;4.886;2022-10-17T17:05:28;21.00;;;11.20;;
1479;SDS011;732;51.698;4.886;2022-10-17T17:07:56;16.00;;;10.87;;
1479;SDS011;732;51.698;4.886;2022-10-17T17:10:29;24.33;;;14.30;;
1479;SDS011;732;51.698;4.886;2022-10-17T17:12:57;18.00;;;11.57;;
1479;SDS011;732;51.698;4.886;2022-10-17T17:15:27;18.27;;;11.13;;
1479;SDS011;732;51.698;4.886;2022-10-17T17:17:56;17.73;;;10.47;;
1479;SDS011;732;51.698;4.886;2022-10-17T17:23:02;12.70;;;10.03;;
1479;SDS011;732;51.698;4.886;2022-10-17T17:25:32;14.50;;;9.63;;
1479;SDS011;732;51.698;4.886;2022-10-17T17:28:01;14.87;;;9.80;;
1479;SDS011;732;51.698;4.886;2022-10-17T17:30:31;14.27;;;9.70;;
1479;SDS011;732;51.698;4.886;2022-10-17T17:33:00;16.83;;;10.77;;
1479;SDS011;732;51.698;4.886;2022-10-17T17:35:29;17.10;;;9.40;;
1479;SDS011;732;51.698;4.886;2022-10-17T17:38:00;13.80;;;9.40;;